Time;durP1;ratioP1;P1;durP2;ratioP2;P2;SDS_P1;SDS_P2;PMS_P1;PMS_P2;Temp;Humidity;BMP_temperature;BMP_pressure;BME280_temperature;BME280_humidity;BME280_pressure;Samples;Min_cycle;Max_cycle;Signal;HPM_P1;HPM_P2
2023/01/25 00:02:13;;;;;;;;;;;;;;;;;;5050891;28;1686;-45
2023/01/25 00:04:40;;;;;;;;;;;;;;;;;;5050359;28;1540;-43
2023/01/25 00:07:07;;;;;;;;;;;;;;;;;;5050667;28;2104;-43
2023/01/25 00:09:34;;;;;;;;;;;;;;;;;;5050300;28;1412;-41
2023/01/25 00:12:01;;;;;;;;;;;;;;;;;;5052623;28;1944;-42
2023/01/25 00:14:29;;;;;;;;;;;;;;;;;;5054368;28;1932;-43
2023/01/25 00:16:56;;;;;;;;;;;;;;;;;;5054336;28;1984;-44
2023/01/25 00:19:23;;;;;;;;;;;;;;;;;;5054159;28;1982;-44
2023/01/25 00:21:50;;;;;;;;;;;;;;;;;;5054159;28;2265;-43
2023/01/25 00:24:17;;;;;;;;;;;;;;;;;;5054170;28;1974;-43
2023/01/25 00:26:45;;;;;;;;;;;;;;;;;;5050079;28;1763;-43
2023/01/25 00:29:13;;;;;;;;;;;;;;;;;;5033977;28;2177;-42
2023/01/25 00:31:58;;;;;;;;;;;;;;;;;;5033903;28;2053;-43
2023/01/25 00:34:28;;;;;;;;;;;;;;;;;;5033999;28;2423;-42
2023/01/25 00:37:01;;;;;;;;;;;;;;;;;;5016079;28;1709;-44
2023/01/25 00:39:29;;;;;;;;;;;;;;;;;;5033911;28;1563;-44
2023/01/25 00:41:56;;;;;;;;;;;;;;;;;;5033936;28;1993;-42
2023/01/25 00:44:23;;;;;;;;;;;;;;;;;;5033747;28;1695;-47
2023/01/25 00:46:50;;;;;;;;;;;;;;;;;;5015980;28;2137;-45
2023/01/25 00:49:22;;;;;;;;;;;;;;;;;;5015959;28;2224;-43
2023/01/25 00:51:50;;;;;;;;;;;;;;;;;;5033484;28;1907;-41
2023/01/25 00:54:18;;;;;;;;;;;;;;;;;;5016041;28;2418;-40
2023/01/25 00:56:45;;;;;;;;;;;;;;;;;;5015863;28;1759;-40
2023/01/25 00:59:13;;;;;;;;;;;;;;;;;;5033506;28;1863;-40
2023/01/25 01:01:41;;;;;;;;;;;;;;;;;;5015746;28;1844;-40
2023/01/25 01:04:09;;;;;;;;;;;;;;;;;;5033446;28;2031;-42
2023/01/25 01:06:40;;;;;;;;;;;;;;;;;;5016258;28;1972;-43
2023/01/25 01:09:10;;;;;;;;;;;;;;;;;;5015367;28;1757;-39
2023/01/25 01:11:38;;;;;;;;;;;;;;;;;;5033177;28;1975;-39
2023/01/25 01:14:05;;;;;;;;;;;;;;;;;;5033077;28;1298;-39
2023/01/25 01:16:32;;;;;;;;;;;;;;;;;;5032994;28;1841;-38
2023/01/25 01:18:59;;;;;;;;;;;;;;;;;;5033231;28;1971;-40
2023/01/25 01:21:27;;;;;;;;;;;;;;;;;;5032952;28;1931;-40
2023/01/25 01:23:55;;;;;;;;;;;;;;;;;;5014772;28;1820;-40
2023/01/25 01:26:23;;;;;;;;;;;;;;;;;;5033922;28;2079;-39
2023/01/25 01:28:50;;;;;;;;;;;;;;;;;;5052980;28;2096;-40
2023/01/25 01:31:19;;;;;;;;;;;;;;;;;;5051784;28;1812;-40
2023/01/25 01:34:00;;;;;;;;;;;;;;;;;;5051302;28;1973;-40
2023/01/25 01:36:28;;;;;;;;;;;;;;;;;;5052736;28;1537;-39
2023/01/25 01:38:56;;;;;;;;;;;;;;;;;;5051178;28;1946;-40
2023/01/25 01:41:23;;;;;;;;;;;;;;;;;;5051333;28;2028;-39
2023/01/25 01:43:52;;;;;;;;;;;;;;;;;;5052822;28;1822;-39
2023/01/25 01:46:25;;;;;;;;;;;;;;;;;;5052913;28;1843;-40
2023/01/25 01:48:55;;;;;;;;;;;;;;;;;;5051119;28;2071;-41
2023/01/25 01:51:39;;;;;;;;;;;;;;;;;;5052598;28;1761;-40
2023/01/25 01:54:13;;;;;;;;;;;;;;;;;;5051038;28;2459;-41
2023/01/25 01:56:47;;;;;;;;;;;;;;;;;;5051133;28;2459;-40
2023/01/25 01:59:15;;;;;;;;;;;;;;;;;;5050848;28;1530;-40
2023/01/25 02:01:43;;;;;;;;;;;;;;;;;;5050932;28;1817;-39
2023/01/25 02:04:13;;;;;;;;;;;;;;;;;;5052305;28;1666;-40
2023/01/25 02:06:53;;;;;;;;;;;;;;;;;;5050782;28;1967;-39
2023/01/25 02:09:22;;;;;;;;;;;;;;;;;;5052419;28;1713;-42
2023/01/25 02:11:50;;;;;;;;;;;;;;;;;;5052311;28;1946;-39
2023/01/25 02:14:18;;;;;;;;;;;;;;;;;;5052081;28;1993;-43
2023/01/25 02:16:45;;;;;;;;;;;;;;;;;;5051820;28;2117;-39
2023/01/25 02:19:16;;;;;;;;;;;;;;;;;;5050543;28;2171;-39
2023/01/25 02:21:44;;;;;;;;;;;;;;;;;;5050794;28;1789;-40
2023/01/25 02:24:27;;;;;;;;;;;;;;;;;;5051868;28;2055;-39
2023/01/25 02:26:55;;;;;;;;;;;;;;;;;;5051927;28;2091;-39
2023/01/25 02:29:23;;;;;;;;;;;;;;;;;;5051984;28;1996;-40
2023/01/25 02:31:57;;;;;;;;;;;;;;;;;;5051795;28;2158;-40
2023/01/25 02:34:26;;;;;;;;;;;;;;;;;;5033351;28;2375;-40
2023/01/25 02:36:54;;;;;;;;;;;;;;;;;;5033636;28;1502;-41
2023/01/25 02:39:24;;;;;;;;;;;;;;;;;;5051676;28;1992;-43
2023/01/25 02:41:51;;;;;;;;;;;;;;;;;;5051534;28;1579;-47
2023/01/25 02:44:22;;;;;;;;;;;;;;;;;;5033375;28;1888;-44
2023/01/25 02:46:49;;;;;;;;;;;;;;;;;;5051502;28;1791;-43
2023/01/25 02:49:18;;;;;;;;;;;;;;;;;;5017442;28;1696;-41
2023/01/25 02:51:48;;;;;;;;;;;;;;;;;;5033243;28;2308;-45
2023/01/25 02:54:17;;;;;;;;;;;;;;;;;;5051224;28;1935;-47
2023/01/25 02:56:44;;;;;;;;;;;;;;;;;;5033488;28;2025;-44
2023/01/25 02:59:17;;;;;;;;;;;;;;;;;;5033436;28;2173;-43
2023/01/25 03:01:49;;;;;;;;;;;;;;;;;;5050879;28;1534;-44
2023/01/25 03:04:18;;;;;;;;;;;;;;;;;;5050939;28;1529;-43
2023/01/25 03:06:48;;;;;;;;;;;;;;;;;;5051061;28;2025;-46
2023/01/25 03:09:16;;;;;;;;;;;;;;;;;;5033347;28;2064;-43
2023/01/25 03:11:46;;;;;;;;;;;;;;;;;;5033167;28;1967;-42
2023/01/25 03:14:15;;;;;;;;;;;;;;;;;;5032993;28;1899;-46
2023/01/25 03:16:42;;;;;;;;;;;;;;;;;;5050839;28;2227;-44
2023/01/25 03:19:10;;;;;;;;;;;;;;;;;;5033076;28;2078;-43
2023/01/25 03:21:38;;;;;;;;;;;;;;;;;;5033273;28;1282;-46
2023/01/25 03:24:06;;;;;;;;;;;;;;;;;;5051196;28;1944;-43
2023/01/25 03:27:09;;;;;;;;;;;;;;;;;;5030121;28;1703;-44
2023/01/25 03:29:33;;;;;;;;;;;;;;;;;;5013078;28;2245;-46
2023/01/25 03:32:04;;;;;;;;;;;;;;;;;;5013226;28;2065;-43
2023/01/25 03:34:31;;;;;;;;;;;;;;;;;;5030760;28;2072;-43
2023/01/25 03:36:59;;;;;;;;;;;;;;;;;;5013451;28;2032;-43
2023/01/25 03:39:29;;;;;;;;;;;;;;;;;;5013265;28;1972;-43
2023/01/25 03:41:56;;;;;;;;;;;;;;;;;;5013519;28;1980;-43
2023/01/25 03:44:23;;;;;;;;;;;;;;;;;;5013306;28;1484;-42
2023/01/25 03:46:51;;;;;;;;;;;;;;;;;;5014988;28;2117;-44
2023/01/25 03:49:19;;;;;;;;;;;;;;;;;;5017161;28;1679;-41
2023/01/25 03:51:46;;;;;;;;;;;;;;;;;;5016712;28;2138;-41
2023/01/25 03:54:15;;;;;;;;;;;;;;;;;;5016699;28;2224;-40
2023/01/25 03:56:46;;;;;;;;;;;;;;;;;;5054068;28;1769;-38
2023/01/25 03:59:19;;;;;;;;;;;;;;;;;;5036633;28;2123;-39
2023/01/25 04:01:46;;;;;;;;;;;;;;;;;;5036640;28;1990;-39
2023/01/25 04:04:14;;;;;;;;;;;;;;;;;;5036281;28;1874;-39
2023/01/25 04:06:43;;;;;;;;;;;;;;;;;;5036350;28;1480;-40
2023/01/25 04:09:13;;;;;;;;;;;;;;;;;;5036408;28;1835;-40
2023/01/25 04:11:51;;;;;;;;;;;;;;;;;;5036301;28;1978;-37
2023/01/25 04:14:19;;;;;;;;;;;;;;;;;;5054098;28;1980;-39
2023/01/25 04:17:07;;;;;;;;;;;;;;;;;;5054072;28;1808;-39
2023/01/25 04:20:09;;;;;;;;;;;;;;;;;;5033662;28;1458;-39
2023/01/25 04:22:39;;;;;;;;;;;;;;;;;;5036117;28;1744;-38
2023/01/25 04:25:10;;;;;;;;;;;;;;;;;;5035552;28;2044;-39
2023/01/25 04:27:45;;;;;;;;;;;;;;;;;;5036881;28;2008;-39
2023/01/25 04:30:15;;;;;;;;;;;;;;;;;;5016241;28;2253;-39
2023/01/25 04:32:43;;;;;;;;;;;;;;;;;;5015920;28;1914;-40
2023/01/25 04:35:24;;;;;;;;;;;;;;;;;;5016025;28;2069;-40
2023/01/25 04:37:53;;;;;;;;;;;;;;;;;;5016108;28;1753;-38
2023/01/25 04:40:23;;;;;;;;;;;;;;;;;;5004538;28;9786;-40
2023/01/25 04:42:50;;;;;;;;;;;;;;;;;;5015868;28;1683;-39
2023/01/25 04:45:17;;;;;;;;;;;;;;;;;;5033831;28;1965;-41
2023/01/25 04:47:45;;;;;;;;;;;;;;;;;;5016067;28;2104;-40
2023/01/25 04:50:12;;;;;;;;;;;;;;;;;;5033598;28;2166;-41
2023/01/25 04:52:40;;;;;;;;;;;;;;;;;;5015989;28;1914;-39
2023/01/25 04:55:08;;;;;;;;;;;;;;;;;;5015873;28;2144;-40
2023/01/25 04:57:40;;;;;;;;;;;;;;;;;;5033049;28;2386;-41
2023/01/25 05:00:08;;;;;;;;;;;;;;;;;;5015883;28;2157;-41
2023/01/25 05:02:38;;;;;;;;;;;;;;;;;;5015688;28;2271;-40
2023/01/25 05:05:06;;;;;;;;;;;;;;;;;;5033176;28;1841;-39
2023/01/25 05:07:34;;;;;;;;;;;;;;;;;;5015820;28;1722;-39
2023/01/25 05:10:02;;;;;;;;;;;;;;;;;;5015905;28;1724;-40
2023/01/25 05:12:29;;;;;;;;;;;;;;;;;;5033305;28;1093;-41
2023/01/25 05:15:04;;;;;;;;;;;;;;;;;;5015392;28;2322;-41
2023/01/25 05:17:31;;;;;;;;;;;;;;;;;;5033557;28;1751;-40
2023/01/25 05:19:59;;;;;;;;;;;;;;;;;;5033106;28;2121;-40
2023/01/25 05:22:26;;;;;;;;;;;;;;;;;;5015193;28;2258;-41
2023/01/25 05:24:53;;;;;;;;;;;;;;;;;;5033057;28;2146;-40
2023/01/25 05:27:23;;;;;;;;;;;;;;;;;;5030480;28;1866;-40
2023/01/25 05:29:54;;;;;;;;;;;;;;;;;;5052980;28;1723;-40
2023/01/25 05:32:38;;;;;;;;;;;;;;;;;;5051521;28;1911;-39
2023/01/25 05:35:06;;;;;;;;;;;;;;;;;;5051754;28;2123;-40
2023/01/25 05:37:37;;;;;;;;;;;;;;;;;;5051465;28;2143;-39
2023/01/25 05:40:14;;;;;;;;;;;;;;;;;;5051249;28;1974;-40
2023/01/25 05:42:42;;;;;;;;;;;;;;;;;;5051396;28;1751;-41
2023/01/25 05:45:15;;;;;;;;;;;;;;;;;;5051332;28;1616;-42
2023/01/25 05:47:44;;;;;;;;;;;;;;;;;;5051210;28;2334;-40
2023/01/25 05:50:12;;;;;;;;;;;;;;;;;;5067924;28;2279;-41
2023/01/25 05:52:55;;;;;;;;;;;;;;;;;;5051243;28;1918;-41
2023/01/25 05:55:23;;;;;;;;;;;;;;;;;;5051057;28;1424;-39
2023/01/25 05:57:54;;;;;;;;;;;;;;;;;;5051061;28;2014;-39
2023/01/25 06:00:22;;;;;;;;;;;;;;;;;;5050990;28;1878;-40
2023/01/25 06:02:49;;;;;;;;;;;;;;;;;;5050747;28;1614;-39
2023/01/25 06:05:20;;;;;;;;;;;;;;;;;;5050959;28;1878;-45
2023/01/25 06:07:48;;;;;;;;;;;;;;;;;;5050745;28;2252;-46
2023/01/25 06:10:18;;;;;;;;;;;;;;;;;;5050010;28;1808;-40
2023/01/25 06:12:49;;;;;;;;;;;;;;;;;;5050726;28;1664;-40
2023/01/25 06:15:16;;;;;;;;;;;;;;;;;;5050595;28;2148;-40
2023/01/25 06:17:43;;;;;;;;;;;;;;;;;;5050649;28;1719;-40
2023/01/25 06:20:25;;;;;;;;;;;;;;;;;;5050742;28;1987;-40
2023/01/25 06:23:09;;;;;;;;;;;;;;;;;;5052070;28;2533;-40
2023/01/25 06:25:36;;;;;;;;;;;;;;;;;;5051913;28;1870;-40
2023/01/25 06:28:04;;;;;;;;;;;;;;;;;;5038976;28;1449;-40
2023/01/25 06:30:31;;;;;;;;;;;;;;;;;;5051590;28;1838;-40
2023/01/25 06:32:58;;;;;;;;;;;;;;;;;;5051563;28;2010;-41
2023/01/25 06:35:26;;;;;;;;;;;;;;;;;;5051664;28;2112;-41
2023/01/25 06:37:56;;;;;;;;;;;;;;;;;;5051728;28;1976;-40
2023/01/25 06:40:27;;;;;;;;;;;;;;;;;;5050412;28;1668;-40
2023/01/25 06:42:54;;;;;;;;;;;;;;;;;;5050370;28;1754;-40
2023/01/25 06:45:21;;;;;;;;;;;;;;;;;;5050679;28;1641;-39
2023/01/25 06:47:48;;;;;;;;;;;;;;;;;;5051526;28;1969;-40
2023/01/25 06:50:16;;;;;;;;;;;;;;;;;;5034071;28;2167;-40
2023/01/25 06:52:49;;;;;;;;;;;;;;;;;;5033511;28;2358;-40
2023/01/25 06:55:17;;;;;;;;;;;;;;;;;;5051192;28;2128;-41
2023/01/25 06:57:44;;;;;;;;;;;;;;;;;;5051335;28;1672;-40
2023/01/25 07:00:11;;;;;;;;;;;;;;;;;;5051333;28;1966;-41
2023/01/25 07:02:40;;;;;;;;;;;;;;;;;;5051589;28;1863;-41
2023/01/25 07:05:08;;;;;;;;;;;;;;;;;;5051493;28;1963;-40
2023/01/25 07:07:35;;;;;;;;;;;;;;;;;;5050996;28;2011;-40
2023/01/25 07:10:03;;;;;;;;;;;;;;;;;;5050856;28;2103;-40
2023/01/25 07:12:30;;;;;;;;;;;;;;;;;;5047762;28;2143;-38
2023/01/25 07:14:57;;;;;;;;;;;;;;;;;;5040655;28;1959;-40
2023/01/25 07:17:24;;;;;;;;;;;;;;;;;;5051043;28;2200;-40
2023/01/25 07:19:52;;;;;;;;;;;;;;;;;;5050831;28;2151;-41
2023/01/25 07:22:19;;;;;;;;;;;;;;;;;;5051117;28;1795;-40
2023/01/25 07:24:49;;;;;;;;;;;;;;;;;;5050862;28;1811;-40
2023/01/25 07:27:17;;;;;;;;;;;;;;;;;;5050908;28;1831;-43
2023/01/25 07:29:44;;;;;;;;;;;;;;;;;;5050974;28;1339;-40
2023/01/25 07:32:13;;;;;;;;;;;;;;;;;;5050897;28;2246;-39
2023/01/25 07:34:41;;;;;;;;;;;;;;;;;;5051124;28;2054;-40
2023/01/25 07:37:09;;;;;;;;;;;;;;;;;;5047832;28;2023;-40
2023/01/25 07:39:36;;;;;;;;;;;;;;;;;;5041141;28;1728;-41
2023/01/25 07:42:03;;;;;;;;;;;;;;;;;;5049575;28;1226;-40
2023/01/25 07:44:32;;;;;;;;;;;;;;;;;;5031034;28;1795;-40
2023/01/25 07:47:11;;;;;;;;;;;;;;;;;;5050993;28;1583;-40
2023/01/25 07:49:42;;;;;;;;;;;;;;;;;;5049848;28;1843;-40
2023/01/25 07:52:09;;;;;;;;;;;;;;;;;;5050728;28;1533;-41
2023/01/25 07:54:36;;;;;;;;;;;;;;;;;;5050581;28;2189;-39
2023/01/25 07:57:03;;;;;;;;;;;;;;;;;;5050743;28;1779;-40
2023/01/25 07:59:30;;;;;;;;;;;;;;;;;;5050680;28;1738;-40
2023/01/25 08:01:58;;;;;;;;;;;;;;;;;;5050664;28;1989;-40
2023/01/25 08:04:25;;;;;;;;;;;;;;;;;;5050899;28;1855;-40
2023/01/25 08:06:52;;;;;;;;;;;;;;;;;;5050627;28;1430;-39
2023/01/25 08:09:19;;;;;;;;;;;;;;;;;;5050705;28;1594;-40
2023/01/25 08:11:48;;;;;;;;;;;;;;;;;;5050665;28;1609;-40
2023/01/25 08:14:18;;;;;;;;;;;;;;;;;;5050324;28;2010;-40
2023/01/25 08:16:45;;;;;;;;;;;;;;;;;;5050558;28;1807;-41
2023/01/25 08:19:12;;;;;;;;;;;;;;;;;;5050504;28;1624;-40
2023/01/25 08:21:39;;;;;;;;;;;;;;;;;;5050427;28;1638;-39
2023/01/25 08:24:07;;;;;;;;;;;;;;;;;;5050645;28;2043;-41
2023/01/25 08:26:35;;;;;;;;;;;;;;;;;;5049007;28;1713;-40
2023/01/25 08:29:03;;;;;;;;;;;;;;;;;;5048217;28;1912;-41
2023/01/25 08:31:31;;;;;;;;;;;;;;;;;;5048246;28;1975;-40
2023/01/25 08:33:59;;;;;;;;;;;;;;;;;;5052091;28;2118;-41
2023/01/25 08:36:26;;;;;;;;;;;;;;;;;;5034282;28;1836;-40
2023/01/25 08:38:55;;;;;;;;;;;;;;;;;;5053483;28;1877;-41
2023/01/25 08:41:22;;;;;;;;;;;;;;;;;;5051780;28;2055;-40
2023/01/25 08:43:51;;;;;;;;;;;;;;;;;;5053603;28;1672;-40
2023/01/25 08:46:19;;;;;;;;;;;;;;;;;;5052290;28;2009;-40
2023/01/25 08:48:46;;;;;;;;;;;;;;;;;;5054002;28;1615;-41
2023/01/25 08:51:15;;;;;;;;;;;;;;;;;;5053801;28;1816;-39
2023/01/25 08:53:42;;;;;;;;;;;;;;;;;;5053553;28;1910;-40
2023/01/25 08:56:11;;;;;;;;;;;;;;;;;;5053510;28;1725;-40
2023/01/25 08:58:39;;;;;;;;;;;;;;;;;;5053476;28;2102;-40
2023/01/25 09:01:09;;;;;;;;;;;;;;;;;;5053604;28;1976;-40
2023/01/25 09:03:41;;;;;;;;;;;;;;;;;;5053362;28;1928;-40
2023/01/25 09:06:08;;;;;;;;;;;;;;;;;;5053545;28;1836;-40
2023/01/25 09:08:36;;;;;;;;;;;;;;;;;;5053333;28;1979;-39
2023/01/25 09:11:04;;;;;;;;;;;;;;;;;;5053205;28;2108;-38
2023/01/25 09:13:32;;;;;;;;;;;;;;;;;;5053201;28;1751;-39
2023/01/25 09:16:00;;;;;;;;;;;;;;;;;;5053208;28;2032;-40
2023/01/25 09:18:28;;;;;;;;;;;;;;;;;;5053133;28;1992;-40
2023/01/25 09:20:56;;;;;;;;;;;;;;;;;;5053109;28;1682;-40
2023/01/25 09:23:23;;;;;;;;;;;;;;;;;;5053002;28;2054;-39
2023/01/25 09:25:57;;;;;;;;;;;;;;;;;;5035395;28;1890;-39
2023/01/25 09:28:25;;;;;;;;;;;;;;;;;;5052991;28;2030;-40
2023/01/25 09:30:56;;;;;;;;;;;;;;;;;;5053185;28;2046;-39
2023/01/25 09:34:08;;;;;;;;;;;;;;;;;;5052657;28;1967;-39
2023/01/25 09:36:35;;;;;;;;;;;;;;;;;;5052932;28;1979;-38
2023/01/25 09:39:02;;;;;;;;;;;;;;;;;;5052836;28;1695;-38
2023/01/25 09:41:48;;;;;;;;;;;;;;;;;;5052730;28;2036;-38
2023/01/25 09:44:15;;;;;;;;;;;;;;;;;;5052461;28;1738;-38
2023/01/25 09:46:47;;;;;;;;;;;;;;;;;;5052631;28;1816;-38
2023/01/25 09:49:37;;;;;;;;;;;;;;;;;;5051384;28;1914;-38
2023/01/25 09:52:23;;;;;;;;;;;;;;;;;;5052505;28;1714;-38
2023/01/25 09:54:50;;;;;;;;;;;;;;;;;;5052442;28;1977;-40
2023/01/25 09:57:20;;;;;;;;;;;;;;;;;;5052629;28;2319;-40
2023/01/25 09:59:49;;;;;;;;;;;;;;;;;;5052323;28;2018;-40
2023/01/25 10:02:33;;;;;;;;;;;;;;;;;;5052189;28;1704;-41
2023/01/25 10:05:05;;;;;;;;;;;;;;;;;;5052078;28;2048;-41
2023/01/25 10:07:56;;;;;;;;;;;;;;;;;;5052216;28;2239;-42
2023/01/25 10:10:29;;;;;;;;;;;;;;;;;;5052432;28;2076;-42
2023/01/25 10:12:56;;;;;;;;;;;;;;;;;;5052350;28;1489;-42
2023/01/25 10:15:27;;;;;;;;;;;;;;;;;;5052043;28;2273;-42
2023/01/25 10:18:15;;;;;;;;;;;;;;;;;;5052174;28;1820;-40
2023/01/25 10:20:53;;;;;;;;;;;;;;;;;;5051895;28;2017;-42
2023/01/25 10:23:34;;;;;;;;;;;;;;;;;;5052130;28;1974;-42
2023/01/25 10:26:24;;;;;;;;;;;;;;;;;;5051880;28;2015;-40
2023/01/25 10:28:58;;;;;;;;;;;;;;;;;;5022131;28;1835;-40
2023/01/25 10:31:34;;;;;;;;;;;;;;;;;;5032252;28;1406;-39
2023/01/25 10:34:02;;;;;;;;;;;;;;;;;;5031734;28;1762;-39
2023/01/25 10:36:30;;;;;;;;;;;;;;;;;;5031453;28;1468;-40
2023/01/25 10:38:59;;;;;;;;;;;;;;;;;;5031637;28;1536;-40
2023/01/25 10:42:02;;;;;;;;;;;;;;;;;;5031821;28;1727;-40
2023/01/25 10:44:30;;;;;;;;;;;;;;;;;;4970654;28;1735;-40
2023/01/25 10:47:19;;;;;;;;;;;;;;;;;;5019837;28;1570;-41
2023/01/25 10:49:50;;;;;;;;;;;;;;;;;;5031526;28;2017;-40
2023/01/25 10:52:18;;;;;;;;;;;;;;;;;;5031546;28;2151;-41
2023/01/25 10:55:01;;;;;;;;;;;;;;;;;;5031013;28;1917;-41
2023/01/25 10:57:29;;;;;;;;;;;;;;;;;;5031268;28;1807;-41
2023/01/25 10:59:56;;;;;;;;;;;;;;;;;;5031607;28;1625;-38
2023/01/25 11:02:35;;;;;;;;;;;;;;;;;;5031342;28;1397;-41
2023/01/25 11:05:17;;;;;;;;;;;;;;;;;;5031352;28;2136;-44
2023/01/25 11:07:50;;;;;;;;;;;;;;;;;;5031151;28;2056;-43
2023/01/25 11:10:29;;;;;;;;;;;;;;;;;;5031340;28;1628;-46
2023/01/25 11:13:14;;;;;;;;;;;;;;;;;;5030999;28;1707;-47
2023/01/25 11:15:43;;;;;;;;;;;;;;;;;;5031257;28;1918;-45
2023/01/25 11:18:33;;;;;;;;;;;;;;;;;;5013524;28;2183;-48
2023/01/25 11:21:36;;;;;;;;;;;;;;;;;;5031106;28;2064;-46
2023/01/25 11:24:07;;;;;;;;;;;;;;;;;;4970201;28;1758;-45
2023/01/25 11:26:36;;;;;;;;;;;;;;;;;;5023966;28;2004;-45
2023/01/25 11:29:12;;;;;;;;;;;;;;;;;;5051051;28;1792;-43
2023/01/25 11:31:44;;;;;;;;;;;;;;;;;;5050750;28;1692;-44
2023/01/25 11:34:13;;;;;;;;;;;;;;;;;;5050882;28;1562;-48
2023/01/25 11:36:56;;;;;;;;;;;;;;;;;;5050686;28;1920;-45
2023/01/25 11:39:23;;;;;;;;;;;;;;;;;;5050946;28;1996;-45
2023/01/25 11:41:56;;;;;;;;;;;;;;;;;;5050883;28;1974;-45
2023/01/25 11:44:26;;;;;;;;;;;;;;;;;;5050794;28;1571;-44
2023/01/25 11:47:22;;;;;;;;;;;;;;;;;;5050820;28;1973;-49
2023/01/25 11:50:06;;;;;;;;;;;;;;;;;;5050742;28;1924;-48
2023/01/25 11:52:42;;;;;;;;;;;;;;;;;;5050774;28;1278;-47
2023/01/25 11:55:09;;;;;;;;;;;;;;;;;;5050822;28;1914;-44
2023/01/25 11:57:48;;;;;;;;;;;;;;;;;;5050696;28;2124;-47
2023/01/25 12:00:17;;;;;;;;;;;;;;;;;;5050980;28;1851;-47
2023/01/25 12:02:55;;;;;;;;;;;;;;;;;;5050822;28;1953;-45
2023/01/25 12:05:31;;;;;;;;;;;;;;;;;;5050803;28;1991;-47
2023/01/25 12:07:58;;;;;;;;;;;;;;;;;;5052448;28;1384;-49
2023/01/25 12:10:35;;;;;;;;;;;;;;;;;;5054814;28;2193;-44
2023/01/25 12:13:11;;;;;;;;;;;;;;;;;;5054668;28;2023;-44
2023/01/25 12:15:46;;;;;;;;;;;;;;;;;;5054339;28;2160;-45
2023/01/25 12:18:13;;;;;;;;;;;;;;;;;;5054003;28;2046;-46
2023/01/25 12:20:57;;;;;;;;;;;;;;;;;;5054317;28;2090;-42
2023/01/25 12:23:42;;;;;;;;;;;;;;;;;;5054144;28;1900;-44
2023/01/25 12:26:29;;;;;;;;;;;;;;;;;;5054258;28;2042;-43
2023/01/25 12:29:00;;;;;;;;;;;;;;;;;;5034208;28;1966;-44
2023/01/25 12:31:47;;;;;;;;;;;;;;;;;;5034358;28;1813;-47
2023/01/25 12:34:21;;;;;;;;;;;;;;;;;;5034048;28;2114;-46
2023/01/25 12:36:49;;;;;;;;;;;;;;;;;;5033861;28;1967;-45
2023/01/25 12:39:20;;;;;;;;;;;;;;;;;;5034037;28;1910;-42
2023/01/25 12:41:49;;;;;;;;;;;;;;;;;;5033765;28;1613;-44
2023/01/25 12:44:23;;;;;;;;;;;;;;;;;;4999693;28;1668;-45
2023/01/25 12:46:50;;;;;;;;;;;;;;;;;;5033846;28;1858;-46
2023/01/25 12:49:33;;;;;;;;;;;;;;;;;;5033758;28;1617;-43
2023/01/25 12:52:04;;;;;;;;;;;;;;;;;;5033847;28;2026;-47
2023/01/25 12:54:33;;;;;;;;;;;;;;;;;;5033794;28;2173;-44
2023/01/25 12:57:19;;;;;;;;;;;;;;;;;;5033829;28;1933;-47
2023/01/25 12:59:52;;;;;;;;;;;;;;;;;;5033636;28;1797;-48
2023/01/25 13:02:19;;;;;;;;;;;;;;;;;;5033304;28;1685;-45
2023/01/25 13:04:49;;;;;;;;;;;;;;;;;;5050679;28;1906;-45
2023/01/25 13:07:32;;;;;;;;;;;;;;;;;;5053352;28;1535;-49
2023/01/25 13:10:11;;;;;;;;;;;;;;;;;;5053267;28;2334;-46
2023/01/25 13:12:52;;;;;;;;;;;;;;;;;;5053766;28;2038;-45
2023/01/25 13:15:46;;;;;;;;;;;;;;;;;;5053268;28;2122;-47
2023/01/25 13:18:22;;;;;;;;;;;;;;;;;;5049571;28;1533;-45
2023/01/25 13:20:53;;;;;;;;;;;;;;;;;;5052931;28;1867;-46
2023/01/25 13:23:33;;;;;;;;;;;;;;;;;;5052891;28;2041;-42
2023/01/25 13:26:19;;;;;;;;;;;;;;;;;;5052859;28;1942;-45
2023/01/25 13:28:49;;;;;;;;;;;;;;;;;;5033141;28;1971;-45
2023/01/25 13:31:45;;;;;;;;;;;;;;;;;;5032957;28;1814;-42
2023/01/25 13:34:33;;;;;;;;;;;;;;;;;;5032984;28;1300;-44
2023/01/25 13:37:01;;;;;;;;;;;;;;;;;;5032923;28;1920;-45
2023/01/25 13:39:34;;;;;;;;;;;;;;;;;;5033011;28;2125;-47
2023/01/25 13:42:02;;;;;;;;;;;;;;;;;;5033127;28;1902;-46
2023/01/25 13:44:37;;;;;;;;;;;;;;;;;;5033194;28;2083;-43
2023/01/25 13:47:06;;;;;;;;;;;;;;;;;;5032968;28;1937;-45
2023/01/25 13:49:39;;;;;;;;;;;;;;;;;;5032880;28;1596;-45
2023/01/25 13:52:07;;;;;;;;;;;;;;;;;;5032689;28;2077;-44
2023/01/25 13:54:41;;;;;;;;;;;;;;;;;;5032717;28;2428;-48
2023/01/25 13:57:11;;;;;;;;;;;;;;;;;;5014971;28;2058;-43
2023/01/25 13:59:40;;;;;;;;;;;;;;;;;;5032525;28;1845;-44
2023/01/25 14:02:27;;;;;;;;;;;;;;;;;;5032726;28;1882;-44
2023/01/25 14:04:55;;;;;;;;;;;;;;;;;;5031357;28;1818;-46
2023/01/25 14:07:27;;;;;;;;;;;;;;;;;;5032348;28;1882;-45
2023/01/25 14:09:55;;;;;;;;;;;;;;;;;;5032384;28;1778;-51
2023/01/25 14:12:49;;;;;;;;;;;;;;;;;;5014772;28;2168;-44
2023/01/25 14:15:16;;;;;;;;;;;;;;;;;;5028991;28;2102;-45
2023/01/25 14:18:03;;;;;;;;;;;;;;;;;;5032342;28;1785;-44
2023/01/25 14:20:30;;;;;;;;;;;;;;;;;;5031955;28;1610;-48
2023/01/25 14:22:57;;;;;;;;;;;;;;;;;;5032194;28;1929;-49
2023/01/25 14:25:27;;;;;;;;;;;;;;;;;;5047397;28;1866;-46
2023/01/25 14:27:56;;;;;;;;;;;;;;;;;;5045602;28;1965;-49
2023/01/25 14:30:30;;;;;;;;;;;;;;;;;;5051071;28;2376;-48
2023/01/25 14:32:59;;;;;;;;;;;;;;;;;;5051743;28;2040;-48
2023/01/25 14:35:27;;;;;;;;;;;;;;;;;;5051773;28;2208;-51
2023/01/25 14:38:28;;;;;;;;;;;;;;;;;;5051518;28;1777;-47
2023/01/25 14:40:57;;;;;;;;;;;;;;;;;;5050336;28;1863;-51
2023/01/25 14:43:25;;;;;;;;;;;;;;;;;;5050389;28;1901;-46
2023/01/25 14:45:52;;;;;;;;;;;;;;;;;;5051503;28;1884;-49
2023/01/25 14:48:40;;;;;;;;;;;;;;;;;;5052079;28;2117;-49
2023/01/25 14:51:16;;;;;;;;;;;;;;;;;;5051726;28;2104;-48
2023/01/25 14:53:45;;;;;;;;;;;;;;;;;;5051367;28;1967;-45
2023/01/25 14:56:21;;;;;;;;;;;;;;;;;;5050185;28;2049;-48
2023/01/25 14:58:50;;;;;;;;;;;;;;;;;;5051161;28;1995;-49
2023/01/25 15:01:30;;;;;;;;;;;;;;;;;;5051444;28;1628;-47
2023/01/25 15:03:58;;;;;;;;;;;;;;;;;;5051496;28;1766;-50
2023/01/25 15:06:25;;;;;;;;;;;;;;;;;;5051562;28;1780;-50
2023/01/25 15:08:52;;;;;;;;;;;;;;;;;;5051176;28;2233;-48
2023/01/25 15:14:27;;;;;;;;;;;;;;;;;;5042531;28;1980;-49
2023/01/25 15:16:54;;;;;;;;;;;;;;;;;;5051031;28;1975;-47
2023/01/25 15:19:22;;;;;;;;;;;;;;;;;;5051155;28;1787;-50
2023/01/25 15:21:56;;;;;;;;;;;;;;;;;;5051146;28;1674;-47
2023/01/25 15:24:23;;;;;;;;;;;;;;;;;;5051169;28;1584;-44
2023/01/25 15:26:51;;;;;;;;;;;;;;;;;;5051128;28;2313;-49
2023/01/25 15:29:20;;;;;;;;;;;;;;;;;;5050902;28;1962;-51
2023/01/25 15:31:48;;;;;;;;;;;;;;;;;;5050804;28;2094;-50
2023/01/25 15:34:20;;;;;;;;;;;;;;;;;;5050755;28;2198;-51
2023/01/25 15:36:48;;;;;;;;;;;;;;;;;;5050915;28;2146;-51
2023/01/25 15:39:17;;;;;;;;;;;;;;;;;;5051023;28;1724;-49
2023/01/25 15:41:45;;;;;;;;;;;;;;;;;;5035054;28;1882;-43
2023/01/25 15:44:12;;;;;;;;;;;;;;;;;;5055130;28;1722;-51
2023/01/25 15:46:41;;;;;;;;;;;;;;;;;;5055149;28;1855;-46
2023/01/25 15:49:13;;;;;;;;;;;;;;;;;;5054879;28;2013;-48
2023/01/25 15:51:40;;;;;;;;;;;;;;;;;;5055007;28;1810;-50
2023/01/25 15:54:07;;;;;;;;;;;;;;;;;;5054920;28;1843;-52
2023/01/25 15:56:36;;;;;;;;;;;;;;;;;;5036470;28;1975;-48
2023/01/25 15:59:07;;;;;;;;;;;;;;;;;;5054798;28;1972;-52
2023/01/25 16:01:34;;;;;;;;;;;;;;;;;;5054652;28;2156;-53
2023/01/25 16:04:01;;;;;;;;;;;;;;;;;;5054595;28;1849;-53
2023/01/25 16:06:32;;;;;;;;;;;;;;;;;;5054397;28;1972;-51
2023/01/25 16:09:01;;;;;;;;;;;;;;;;;;5053715;28;2016;-50
2023/01/25 16:11:28;;;;;;;;;;;;;;;;;;5054326;28;1621;-47
2023/01/25 16:13:56;;;;;;;;;;;;;;;;;;5053357;28;2153;-54
2023/01/25 16:16:25;;;;;;;;;;;;;;;;;;5054134;28;2105;-51
2023/01/25 16:18:52;;;;;;;;;;;;;;;;;;5054528;28;2370;-54
2023/01/25 16:21:19;;;;;;;;;;;;;;;;;;5054331;28;1667;-52
2023/01/25 16:23:46;;;;;;;;;;;;;;;;;;5054485;28;1810;-52
2023/01/25 16:26:19;;;;;;;;;;;;;;;;;;5054518;28;2182;-46
2023/01/25 16:28:46;;;;;;;;;;;;;;;;;;5034366;28;1825;-53
2023/01/25 16:31:14;;;;;;;;;;;;;;;;;;5034237;28;2113;-49
2023/01/25 16:33:57;;;;;;;;;;;;;;;;;;5033985;28;1746;-54
2023/01/25 16:36:27;;;;;;;;;;;;;;;;;;5034026;28;1915;-46
2023/01/25 16:38:54;;;;;;;;;;;;;;;;;;5033942;28;1935;-48
2023/01/25 16:41:23;;;;;;;;;;;;;;;;;;5034178;28;1825;-48
2023/01/25 16:43:52;;;;;;;;;;;;;;;;;;5033906;28;2097;-52
2023/01/25 16:46:20;;;;;;;;;;;;;;;;;;5034089;28;1996;-47
2023/01/25 16:48:48;;;;;;;;;;;;;;;;;;5033933;28;1906;-54
2023/01/25 16:51:20;;;;;;;;;;;;;;;;;;5033822;28;1944;-46
2023/01/25 16:53:48;;;;;;;;;;;;;;;;;;5049713;28;2001;-50
2023/01/25 16:56:19;;;;;;;;;;;;;;;;;;5053657;28;1987;-48
2023/01/25 16:58:47;;;;;;;;;;;;;;;;;;5053437;28;1961;-47
2023/01/25 17:01:15;;;;;;;;;;;;;;;;;;5035824;28;2445;-46
2023/01/25 17:03:42;;;;;;;;;;;;;;;;;;5052930;28;1926;-48
2023/01/25 17:06:16;;;;;;;;;;;;;;;;;;5053318;28;2175;-46
2023/01/25 17:08:44;;;;;;;;;;;;;;;;;;5053309;28;2130;-53
2023/01/25 17:11:11;;;;;;;;;;;;;;;;;;5053580;28;1898;-49
2023/01/25 17:13:38;;;;;;;;;;;;;;;;;;5053441;28;1777;-51
2023/01/25 17:16:06;;;;;;;;;;;;;;;;;;5053391;28;1966;-49
2023/01/25 17:18:33;;;;;;;;;;;;;;;;;;5053102;28;1821;-48
2023/01/25 17:21:01;;;;;;;;;;;;;;;;;;5053167;28;1695;-48
2023/01/25 17:23:34;;;;;;;;;;;;;;;;;;5053248;28;1824;-44
2023/01/25 17:26:02;;;;;;;;;;;;;;;;;;5035355;28;1924;-47
2023/01/25 17:28:30;;;;;;;;;;;;;;;;;;5052804;28;1816;-47
2023/01/25 17:31:00;;;;;;;;;;;;;;;;;;5051947;28;1935;-44
2023/01/25 17:33:27;;;;;;;;;;;;;;;;;;5051675;28;1945;-47
2023/01/25 17:35:57;;;;;;;;;;;;;;;;;;5052963;28;1922;-43